sensor_id;sensor_type;location;lat;lon;timestamp;pressure;altitude;pressure_sealevel;temperature;humidity
37648;BME280;23490;53.656;10.076;2023-04-09T00:02:08;99318.88;;;-145.95;100.00
37648;BME280;23490;53.656;10.076;2023-04-09T00:04:34;99339.53;;;-145.95;100.00
37648;BME280;23490;53.656;10.076;2023-04-09T00:06:59;99335.41;;;-145.95;100.00
37648;BME280;23490;53.656;10.076;2023-04-09T00:09:25;99347.78;;;-145.95;100.00
37648;BME280;23490;53.656;10.076;2023-04-09T00:11:51;99376.69;;;-145.95;100.00
37648;BME280;23490;53.656;10.076;2023-04-09T00:14:16;99339.53;;;-145.95;100.00
37648;BME280;23490;53.656;10.076;2023-04-09T00:16:41;99331.28;;;-145.95;100.00
37648;BME280;23490;53.656;10.076;2023-04-09T00:19:07;99362.25;;;-145.95;100.00
37648;BME280;23490;53.656;10.076;2023-04-09T00:21:32;99320.94;;;-145.95;100.00
37648;BME280;23490;53.656;10.076;2023-04-09T00:24:02;99364.31;;;-145.95;100.00
37648;BME280;23490;53.656;10.076;2023-04-09T00:26:27;99351.91;;;-145.95;100.00
37648;BME280;23490;53.656;10.076;2023-04-09T00:28:53;99335.41;;;-145.95;100.00
37648;BME280;23490;53.656;10.076;2023-04-09T00:31:19;99356.06;;;-145.95;100.00
37648;BME280;23490;53.656;10.076;2023-04-09T00:33:44;99323.00;;;-145.95;100.00
37648;BME280;23490;53.656;10.076;2023-04-09T00:36:10;99364.31;;;-145.95;100.00
37648;BME280;23490;53.656;10.076;2023-04-09T00:38:35;99343.66;;;-145.95;100.00
37648;BME280;23490;53.656;10.076;2023-04-09T00:41:01;99351.91;;;-145.95;100.00
37648;BME280;23490;53.656;10.076;2023-04-09T00:43:26;99323.00;;;-145.95;100.00
37648;BME280;23490;53.656;10.076;2023-04-09T00:45:51;99339.53;;;-145.95;100.00
37648;BME280;23490;53.656;10.076;2023-04-09T00:48:17;99337.47;;;-145.95;100.00
37648;BME280;23490;53.656;10.076;2023-04-09T00:50:42;99349.84;;;-145.95;100.00
37648;BME280;23490;53.656;10.076;2023-04-09T00:53:09;99360.19;;;-145.95;100.00
37648;BME280;23490;53.656;10.076;2023-04-09T00:55:35;99356.06;;;-145.95;100.00
37648;BME280;23490;53.656;10.076;2023-04-09T00:58:01;99310.63;;;-145.95;100.00
37648;BME280;23490;53.656;10.076;2023-04-09T01:00:26;99360.19;;;-145.95;100.00
37648;BME280;23490;53.656;10.076;2023-04-09T01:02:52;99318.88;;;-145.95;100.00
37648;BME280;23490;53.656;10.076;2023-04-09T01:05:19;99354.00;;;-145.95;100.00
37648;BME280;23490;53.656;10.076;2023-04-09T01:08:17;99351.91;;;-145.95;100.00
37648;BME280;23490;53.656;10.076;2023-04-09T01:10:51;99372.56;;;-145.95;100.00
37648;BME280;23490;53.656;10.076;2023-04-09T01:13:38;99300.28;;;-145.95;100.00
37648;BME280;23490;53.656;10.076;2023-04-09T01:16:07;99323.00;;;-145.95;100.00
37648;BME280;23490;53.656;10.076;2023-04-09T01:21:10;99364.31;;;-145.95;100.00
37648;BME280;23490;53.656;10.076;2023-04-09T01:23:45;99364.31;;;-145.95;100.00
37648;BME280;23490;53.656;10.076;2023-04-09T01:26:20;99401.50;;;-145.95;100.00
37648;BME280;23490;53.656;10.076;2023-04-09T01:28:51;99413.88;;;-145.95;100.00
37648;BME280;23490;53.656;10.076;2023-04-09T01:31:19;99343.66;;;-145.95;100.00
37648;BME280;23490;53.656;10.076;2023-04-09T01:33:45;99360.19;;;-145.95;100.00
37648;BME280;23490;53.656;10.076;2023-04-09T01:36:12;99374.63;;;-145.95;100.00
37648;BME280;23490;53.656;10.076;2023-04-09T01:38:40;99372.56;;;-145.95;100.00
37648;BME280;23490;53.656;10.076;2023-04-09T01:41:09;99380.84;;;-145.95;100.00
37648;BME280;23490;53.656;10.076;2023-04-09T01:43:35;99380.84;;;-145.95;100.00
37648;BME280;23490;53.656;10.076;2023-04-09T01:46:01;99389.09;;;-145.95;100.00
37648;BME280;23490;53.656;10.076;2023-04-09T01:48:28;99362.25;;;-145.95;100.00
37648;BME280;23490;53.656;10.076;2023-04-09T01:50:55;99372.56;;;-145.95;100.00
37648;BME280;23490;53.656;10.076;2023-04-09T01:53:21;99374.63;;;-145.95;100.00
37648;BME280;23490;53.656;10.076;2023-04-09T01:55:47;99331.28;;;-145.95;100.00
37648;BME280;23490;53.656;10.076;2023-04-09T01:58:13;99360.19;;;-145.95;100.00
37648;BME280;23490;53.656;10.076;2023-04-09T02:00:44;99347.78;;;-145.95;100.00
37648;BME280;23490;53.656;10.076;2023-04-09T02:03:33;99387.03;;;-145.95;100.00
37648;BME280;23490;53.656;10.076;2023-04-09T02:08:51;99360.19;;;-145.95;100.00
37648;BME280;23490;53.656;10.076;2023-04-09T02:11:17;99366.38;;;-145.95;100.00
37648;BME280;23490;53.656;10.076;2023-04-09T02:13:44;99372.56;;;-145.95;100.00
37648;BME280;23490;53.656;10.076;2023-04-09T02:16:11;99380.84;;;-145.95;100.00
37648;BME280;23490;53.656;10.076;2023-04-09T02:18:37;99351.91;;;-145.95;100.00
37648;BME280;23490;53.656;10.076;2023-04-09T02:21:02;99360.19;;;-145.95;100.00
37648;BME280;23490;53.656;10.076;2023-04-09T02:23:29;99393.22;;;-145.95;100.00
37648;BME280;23490;53.656;10.076;2023-04-09T02:25:57;99347.78;;;-145.95;100.00
37648;BME280;23490;53.656;10.076;2023-04-09T02:28:23;99335.41;;;-145.95;100.00
37648;BME280;23490;53.656;10.076;2023-04-09T02:30:48;99339.53;;;-145.95;100.00
37648;BME280;23490;53.656;10.076;2023-04-09T02:33:14;99343.66;;;-145.95;100.00
37648;BME280;23490;53.656;10.076;2023-04-09T02:35:39;99347.78;;;-145.95;100.00
37648;BME280;23490;53.656;10.076;2023-04-09T02:38:04;99409.75;;;-145.95;100.00
37648;BME280;23490;53.656;10.076;2023-04-09T02:40:30;99372.56;;;-145.95;100.00
37648;BME280;23490;53.656;10.076;2023-04-09T02:42:58;99360.19;;;-145.95;100.00
37648;BME280;23490;53.656;10.076;2023-04-09T02:45:24;99401.50;;;-145.95;100.00
37648;BME280;23490;53.656;10.076;2023-04-09T02:47:49;99368.44;;;-145.95;100.00
37648;BME280;23490;53.656;10.076;2023-04-09T02:50:15;99380.84;;;-145.95;100.00
37648;BME280;23490;53.656;10.076;2023-04-09T02:52:41;99384.97;;;-145.95;100.00
37648;BME280;23490;53.656;10.076;2023-04-09T02:55:06;99413.88;;;-145.95;100.00
37648;BME280;23490;53.656;10.076;2023-04-09T02:57:32;99389.09;;;-145.95;100.00
37648;BME280;23490;53.656;10.076;2023-04-09T02:59:57;99356.06;;;-145.95;100.00
37648;BME280;23490;53.656;10.076;2023-04-09T03:02:23;99376.69;;;-145.95;100.00
37648;BME280;23490;53.656;10.076;2023-04-09T03:04:48;99347.78;;;-145.95;100.00
37648;BME280;23490;53.656;10.076;2023-04-09T03:07:14;99368.44;;;-145.95;100.00
37648;BME280;23490;53.656;10.076;2023-04-09T03:09:39;99418.00;;;-145.95;100.00
37648;BME280;23490;53.656;10.076;2023-04-09T03:12:05;99389.09;;;-145.95;100.00
37648;BME280;23490;53.656;10.076;2023-04-09T03:14:30;99362.25;;;-145.95;100.00
37648;BME280;23490;53.656;10.076;2023-04-09T03:16:55;99362.25;;;-145.95;100.00
37648;BME280;23490;53.656;10.076;2023-04-09T03:19:21;99356.06;;;-145.95;100.00
37648;BME280;23490;53.656;10.076;2023-04-09T03:21:46;99380.84;;;-145.95;100.00
37648;BME280;23490;53.656;10.076;2023-04-09T03:24:13;99389.09;;;-145.95;100.00
37648;BME280;23490;53.656;10.076;2023-04-09T03:26:39;99360.19;;;-145.95;100.00
37648;BME280;23490;53.656;10.076;2023-04-09T03:29:05;99401.50;;;-145.95;100.00
37648;BME280;23490;53.656;10.076;2023-04-09T03:31:31;99401.50;;;-145.95;100.00
37648;BME280;23490;53.656;10.076;2023-04-09T03:33:56;99368.44;;;-145.95;100.00
37648;BME280;23490;53.656;10.076;2023-04-09T03:36:22;99378.78;;;-145.95;100.00
37648;BME280;23490;53.656;10.076;2023-04-09T03:38:47;99397.34;;;-145.95;100.00
37648;BME280;23490;53.656;10.076;2023-04-09T03:41:13;99366.38;;;-145.95;100.00
37648;BME280;23490;53.656;10.076;2023-04-09T03:43:38;99354.00;;;-145.95;100.00
37648;BME280;23490;53.656;10.076;2023-04-09T03:46:14;99380.84;;;-145.95;100.00
37648;BME280;23490;53.656;10.076;2023-04-09T03:48:39;99372.56;;;-145.95;100.00
37648;BME280;23490;53.656;10.076;2023-04-09T03:51:05;99376.69;;;-145.95;100.00
37648;BME280;23490;53.656;10.076;2023-04-09T03:53:30;99376.69;;;-145.95;100.00
37648;BME280;23490;53.656;10.076;2023-04-09T03:55:56;99391.16;;;-145.95;100.00
37648;BME280;23490;53.656;10.076;2023-04-09T03:58:21;99364.31;;;-145.95;100.00
37648;BME280;23490;53.656;10.076;2023-04-09T04:00:46;99364.31;;;-145.95;100.00
37648;BME280;23490;53.656;10.076;2023-04-09T04:03:13;99384.97;;;-145.95;100.00
37648;BME280;23490;53.656;10.076;2023-04-09T04:05:40;99397.34;;;-145.95;100.00
37648;BME280;23490;53.656;10.076;2023-04-09T04:08:06;99401.50;;;-145.95;100.00
37648;BME280;23490;53.656;10.076;2023-04-09T04:10:35;99347.78;;;-145.95;100.00
37648;BME280;23490;53.656;10.076;2023-04-09T04:13:00;99389.09;;;-145.95;100.00
37648;BME280;23490;53.656;10.076;2023-04-09T04:15:27;99347.78;;;-145.95;100.00
37648;BME280;23490;53.656;10.076;2023-04-09T04:17:53;99401.50;;;-145.95;100.00
37648;BME280;23490;53.656;10.076;2023-04-09T04:20:18;99380.84;;;-145.95;100.00
37648;BME280;23490;53.656;10.076;2023-04-09T04:22:44;99376.69;;;-145.95;100.00
37648;BME280;23490;53.656;10.076;2023-04-09T04:25:09;99407.69;;;-145.95;100.00
37648;BME280;23490;53.656;10.076;2023-04-09T04:27:35;99409.75;;;-145.95;100.00
37648;BME280;23490;53.656;10.076;2023-04-09T04:30:00;99405.63;;;-145.95;100.00
37648;BME280;23490;53.656;10.076;2023-04-09T04:32:26;99455.19;;;-145.95;100.00
37648;BME280;23490;53.656;10.076;2023-04-09T04:34:52;99426.28;;;-145.95;100.00
37648;BME280;23490;53.656;10.076;2023-04-09T04:37:17;99405.63;;;-145.95;100.00
37648;BME280;23490;53.656;10.076;2023-04-09T04:39:42;99393.22;;;-145.95;100.00
37648;BME280;23490;53.656;10.076;2023-04-09T04:42:08;99422.13;;;-145.95;100.00
37648;BME280;23490;53.656;10.076;2023-04-09T04:44:33;99401.50;;;-145.95;100.00
37648;BME280;23490;53.656;10.076;2023-04-09T04:46:59;99389.09;;;-145.95;100.00
37648;BME280;23490;53.656;10.076;2023-04-09T04:49:24;99339.53;;;-145.95;100.00
37648;BME280;23490;53.656;10.076;2023-04-09T04:51:49;99389.09;;;-145.95;100.00
37648;BME280;23490;53.656;10.076;2023-04-09T04:54:15;99331.28;;;-145.95;100.00
37648;BME280;23490;53.656;10.076;2023-04-09T04:56:40;99380.84;;;-145.95;100.00
37648;BME280;23490;53.656;10.076;2023-04-09T04:59:05;99374.63;;;-145.95;100.00
37648;BME280;23490;53.656;10.076;2023-04-09T05:01:31;99401.50;;;-145.95;100.00
37648;BME280;23490;53.656;10.076;2023-04-09T05:03:56;99430.41;;;-145.95;100.00
37648;BME280;23490;53.656;10.076;2023-04-09T05:06:22;99405.63;;;-145.95;100.00
37648;BME280;23490;53.656;10.076;2023-04-09T05:08:47;99401.50;;;-145.95;100.00
37648;BME280;23490;53.656;10.076;2023-04-09T05:11:13;99380.84;;;-145.95;100.00
37648;BME280;23490;53.656;10.076;2023-04-09T05:13:41;99374.63;;;-145.95;100.00
37648;BME280;23490;53.656;10.076;2023-04-09T05:16:06;99364.31;;;-145.95;100.00
37648;BME280;23490;53.656;10.076;2023-04-09T05:18:32;99391.16;;;-145.95;100.00
37648;BME280;23490;53.656;10.076;2023-04-09T05:20:57;99376.69;;;-145.95;100.00
37648;BME280;23490;53.656;10.076;2023-04-09T05:23:22;99407.69;;;-145.95;100.00
37648;BME280;23490;53.656;10.076;2023-04-09T05:25:48;99393.22;;;-145.95;100.00
37648;BME280;23490;53.656;10.076;2023-04-09T05:28:14;99405.63;;;-145.95;100.00
37648;BME280;23490;53.656;10.076;2023-04-09T05:30:45;99393.22;;;-145.95;100.00
37648;BME280;23490;53.656;10.076;2023-04-09T05:33:11;99399.41;;;-145.95;100.00
37648;BME280;23490;53.656;10.076;2023-04-09T05:35:39;99389.09;;;-145.95;100.00
37648;BME280;23490;53.656;10.076;2023-04-09T05:38:04;99401.50;;;-145.95;100.00
37648;BME280;23490;53.656;10.076;2023-04-09T05:40:30;99409.75;;;-145.95;100.00
37648;BME280;23490;53.656;10.076;2023-04-09T05:42:56;99374.63;;;-145.95;100.00
37648;BME280;23490;53.656;10.076;2023-04-09T05:45:21;99356.06;;;-145.95;100.00
37648;BME280;23490;53.656;10.076;2023-04-09T05:47:47;99376.69;;;-145.95;100.00
37648;BME280;23490;53.656;10.076;2023-04-09T05:50:12;99339.53;;;-145.95;100.00
37648;BME280;23490;53.656;10.076;2023-04-09T05:52:38;99389.09;;;-145.95;100.00
37648;BME280;23490;53.656;10.076;2023-04-09T05:55:04;99368.44;;;-145.95;100.00
37648;BME280;23490;53.656;10.076;2023-04-09T05:57:31;99384.97;;;-145.95;100.00
37648;BME280;23490;53.656;10.076;2023-04-09T05:59:57;99366.38;;;-145.95;100.00
37648;BME280;23490;53.656;10.076;2023-04-09T06:02:23;99401.50;;;-145.95;100.00
37648;BME280;23490;53.656;10.076;2023-04-09T06:04:49;99405.63;;;-145.95;100.00
37648;BME280;23490;53.656;10.076;2023-04-09T06:07:15;99368.44;;;-145.95;100.00
37648;BME280;23490;53.656;10.076;2023-04-09T06:09:40;99362.25;;;-145.95;100.00
37648;BME280;23490;53.656;10.076;2023-04-09T06:12:08;99364.31;;;-145.95;100.00
37648;BME280;23490;53.656;10.076;2023-04-09T06:14:34;99364.31;;;-145.95;100.00
37648;BME280;23490;53.656;10.076;2023-04-09T06:16:59;99397.34;;;-145.95;100.00
37648;BME280;23490;53.656;10.076;2023-04-09T06:19:25;99356.06;;;-145.95;100.00
37648;BME280;23490;53.656;10.076;2023-04-09T06:21:50;99351.91;;;-145.95;100.00
37648;BME280;23490;53.656;10.076;2023-04-09T06:24:16;99376.69;;;-145.95;100.00
37648;BME280;23490;53.656;10.076;2023-04-09T06:26:41;99372.56;;;-145.95;100.00
37648;BME280;23490;53.656;10.076;2023-04-09T06:29:06;99374.63;;;-145.95;100.00
37648;BME280;23490;53.656;10.076;2023-04-09T06:31:32;99356.06;;;-145.95;100.00
37648;BME280;23490;53.656;10.076;2023-04-09T06:33:58;99366.38;;;-145.95;100.00
37648;BME280;23490;53.656;10.076;2023-04-09T06:36:23;99368.44;;;-145.95;100.00
37648;BME280;23490;53.656;10.076;2023-04-09T06:38:49;99343.66;;;-145.95;100.00
37648;BME280;23490;53.656;10.076;2023-04-09T06:41:14;99370.50;;;-145.95;100.00
37648;BME280;23490;53.656;10.076;2023-04-09T06:43:40;99323.00;;;-145.95;100.00
37648;BME280;23490;53.656;10.076;2023-04-09T06:46:05;99364.31;;;-145.95;100.00
37648;BME280;23490;53.656;10.076;2023-04-09T06:48:31;99370.50;;;-145.95;100.00
37648;BME280;23490;53.656;10.076;2023-04-09T06:50:56;99335.41;;;-145.95;100.00
37648;BME280;23490;53.656;10.076;2023-04-09T06:53:22;99370.50;;;-145.95;100.00
37648;BME280;23490;53.656;10.076;2023-04-09T06:55:47;99362.25;;;-145.95;100.00
37648;BME280;23490;53.656;10.076;2023-04-09T06:58:12;99318.88;;;-145.95;100.00
37648;BME280;23490;53.656;10.076;2023-04-09T07:00:39;99389.09;;;-145.95;100.00
37648;BME280;23490;53.656;10.076;2023-04-09T07:03:07;99343.66;;;-145.95;100.00
37648;BME280;23490;53.656;10.076;2023-04-09T07:05:33;99335.41;;;-145.95;100.00
37648;BME280;23490;53.656;10.076;2023-04-09T07:07:59;99335.41;;;-145.95;100.00
37648;BME280;23490;53.656;10.076;2023-04-09T07:10:24;99345.72;;;-145.95;100.00
37648;BME280;23490;53.656;10.076;2023-04-09T07:12:50;99362.25;;;-145.95;100.00
37648;BME280;23490;53.656;10.076;2023-04-09T07:15:15;99318.88;;;-145.95;100.00
37648;BME280;23490;53.656;10.076;2023-04-09T07:17:40;99339.53;;;-145.95;100.00
37648;BME280;23490;53.656;10.076;2023-04-09T07:20:09;99356.06;;;-145.95;100.00
37648;BME280;23490;53.656;10.076;2023-04-09T07:22:34;99351.91;;;-145.95;100.00
37648;BME280;23490;53.656;10.076;2023-04-09T07:25:00;99327.13;;;-145.95;100.00
37648;BME280;23490;53.656;10.076;2023-04-09T07:27:27;99327.13;;;-145.95;100.00
37648;BME280;23490;53.656;10.076;2023-04-09T07:29:57;99261.06;;;-145.95;100.00
37648;BME280;23490;53.656;10.076;2023-04-09T07:32:23;99331.28;;;-145.95;100.00
37648;BME280;23490;53.656;10.076;2023-04-09T07:34:52;99335.41;;;-145.95;100.00
37648;BME280;23490;53.656;10.076;2023-04-09T07:37:18;99327.13;;;-145.95;100.00
37648;BME280;23490;53.656;10.076;2023-04-09T07:39:43;99289.97;;;-145.95;100.00
37648;BME280;23490;53.656;10.076;2023-04-09T07:42:09;99339.53;;;-145.95;100.00
37648;BME280;23490;53.656;10.076;2023-04-09T07:44:35;99331.28;;;-145.95;100.00
37648;BME280;23490;53.656;10.076;2023-04-09T07:47:04;99306.50;;;-145.95;100.00
37648;BME280;23490;53.656;10.076;2023-04-09T07:49:30;99314.75;;;-145.95;100.00
37648;BME280;23490;53.656;10.076;2023-04-09T07:51:56;99318.88;;;-145.95;100.00
37648;BME280;23490;53.656;10.076;2023-04-09T07:54:22;99314.75;;;-145.95;100.00
37648;BME280;23490;53.656;10.076;2023-04-09T07:56:48;99308.56;;;-145.95;100.00
37648;BME280;23490;53.656;10.076;2023-04-09T07:59:13;99298.22;;;-145.95;100.00
37648;BME280;23490;53.656;10.076;2023-04-09T08:01:42;99285.84;;;-145.95;100.00
37648;BME280;23490;53.656;10.076;2023-04-09T08:04:08;99269.31;;;-145.95;100.00
37648;BME280;23490;53.656;10.076;2023-04-09T08:06:33;99269.31;;;-145.95;100.00
37648;BME280;23490;53.656;10.076;2023-04-09T08:09:00;99256.94;;;-145.95;100.00
37648;BME280;23490;53.656;10.076;2023-04-09T08:11:25;99302.34;;;-145.95;100.00
37648;BME280;23490;53.656;10.076;2023-04-09T08:13:51;99240.41;;;-145.95;100.00
37648;BME280;23490;53.656;10.076;2023-04-09T08:16:17;99248.66;;;-145.95;100.00
37648;BME280;23490;53.656;10.076;2023-04-09T08:18:42;99250.72;;;-145.95;100.00
37648;BME280;23490;53.656;10.076;2023-04-09T08:21:07;99250.72;;;-145.95;100.00
37648;BME280;23490;53.656;10.076;2023-04-09T08:23:33;99259.00;;;-145.95;100.00
37648;BME280;23490;53.656;10.076;2023-04-09T08:25:58;99244.53;;;-145.95;100.00
37648;BME280;23490;53.656;10.076;2023-04-09T08:28:24;99252.78;;;-145.95;100.00
37648;BME280;23490;53.656;10.076;2023-04-09T08:30:49;99265.19;;;-145.95;100.00
37648;BME280;23490;53.656;10.076;2023-04-09T08:33:17;99244.53;;;-145.95;100.00
37648;BME280;23490;53.656;10.076;2023-04-09T08:35:42;99207.38;;;-145.95;100.00
37648;BME280;23490;53.656;10.076;2023-04-09T08:38:08;99215.63;;;-145.95;100.00
37648;BME280;23490;53.656;10.076;2023-04-09T08:40:34;99194.97;;;-145.95;100.00
37648;BME280;23490;53.656;10.076;2023-04-09T08:43:04;99232.16;;;-145.95;100.00
37648;BME280;23490;53.656;10.076;2023-04-09T08:45:34;99248.66;;;-145.95;100.00
37648;BME280;23490;53.656;10.076;2023-04-09T08:48:01;99242.47;;;-145.95;100.00
37648;BME280;23490;53.656;10.076;2023-04-09T08:50:31;99221.81;;;-145.95;100.00
37648;BME280;23490;53.656;10.076;2023-04-09T08:52:57;99186.72;;;-145.95;100.00
37648;BME280;23490;53.656;10.076;2023-04-09T08:55:23;99211.50;;;-145.95;100.00
37648;BME280;23490;53.656;10.076;2023-04-09T08:57:48;99215.63;;;-145.95;100.00
37648;BME280;23490;53.656;10.076;2023-04-09T09:00:14;99172.25;;;-145.95;100.00
37648;BME280;23490;53.656;10.076;2023-04-09T09:03:03;99259.00;;;-145.95;100.00
37648;BME280;23490;53.656;10.076;2023-04-09T09:08:00;99259.00;;;-145.95;100.00
37648;BME280;23490;53.656;10.076;2023-04-09T09:10:43;99207.38;;;-145.95;100.00
37648;BME280;23490;53.656;10.076;2023-04-09T09:15:46;99194.97;;;-145.95;100.00
37648;BME280;23490;53.656;10.076;2023-04-09T09:18:16;99213.56;;;-145.95;100.00
37648;BME280;23490;53.656;10.076;2023-04-09T09:20:42;99194.97;;;-145.95;100.00
37648;BME280;23490;53.656;10.076;2023-04-09T09:23:10;99211.50;;;-145.95;100.00
37648;BME280;23490;53.656;10.076;2023-04-09T09:25:40;99203.22;;;-145.95;100.00
37648;BME280;23490;53.656;10.076;2023-04-09T09:28:10;99182.59;;;-145.95;100.00
37648;BME280;23490;53.656;10.076;2023-04-09T09:30:36;99232.16;;;-145.95;100.00
37648;BME280;23490;53.656;10.076;2023-04-09T09:33:10;99199.09;;;-145.95;100.00
37648;BME280;23490;53.656;10.076;2023-04-09T09:35:52;99199.09;;;-145.95;100.00
37648;BME280;23490;53.656;10.076;2023-04-09T09:38:19;99203.22;;;-145.95;100.00
37648;BME280;23490;53.656;10.076;2023-04-09T09:40:45;99199.09;;;-145.95;100.00
37648;BME280;23490;53.656;10.076;2023-04-09T09:43:12;99194.97;;;-145.95;100.00
37648;BME280;23490;53.656;10.076;2023-04-09T09:45:38;99199.09;;;-145.95;100.00
37648;BME280;23490;53.656;10.076;2023-04-09T09:48:04;99203.22;;;-145.95;100.00
37648;BME280;23490;53.656;10.076;2023-04-09T09:50:38;99122.69;;;-145.95;100.00
37648;BME280;23490;53.656;10.076;2023-04-09T09:53:07;99186.72;;;-145.95;100.00
37648;BME280;23490;53.656;10.076;2023-04-09T09:55:44;99166.06;;;-145.95;100.00
37648;BME280;23490;53.656;10.076;2023-04-09T09:58:22;99211.50;;;-145.95;100.00
37648;BME280;23490;53.656;10.076;2023-04-09T10:00:53;99170.19;;;-145.95;100.00
37648;BME280;23490;53.656;10.076;2023-04-09T10:03:26;99157.81;;;-145.95;100.00
37648;BME280;23490;53.656;10.076;2023-04-09T10:05:53;99137.16;;;-145.95;100.00
37648;BME280;23490;53.656;10.076;2023-04-09T10:08:20;99120.63;;;-145.95;100.00
37648;BME280;23490;53.656;10.076;2023-04-09T10:10:48;99120.63;;;-145.95;100.00
37648;BME280;23490;53.656;10.076;2023-04-09T10:13:24;99174.31;;;-145.95;100.00
37648;BME280;23490;53.656;10.076;2023-04-09T10:15:54;99168.13;;;-145.95;100.00
37648;BME280;23490;53.656;10.076;2023-04-09T10:18:19;99157.81;;;-145.95;100.00
37648;BME280;23490;53.656;10.076;2023-04-09T10:20:50;99199.09;;;-145.95;100.00
37648;BME280;23490;53.656;10.076;2023-04-09T10:23:31;99190.84;;;-145.95;100.00
37648;BME280;23490;53.656;10.076;2023-04-09T10:25:57;99145.41;;;-145.95;100.00
37648;BME280;23490;53.656;10.076;2023-04-09T10:28:22;99155.72;;;-145.95;100.00
37648;BME280;23490;53.656;10.076;2023-04-09T10:30:48;99120.63;;;-145.95;100.00
37648;BME280;23490;53.656;10.076;2023-04-09T10:33:15;99120.63;;;-145.95;100.00
37648;BME280;23490;53.656;10.076;2023-04-09T10:35:42;99099.97;;;-145.95;100.00
37648;BME280;23490;53.656;10.076;2023-04-09T10:38:13;99145.41;;;-145.95;99.96
37648;BME280;23490;53.656;10.076;2023-04-09T10:40:40;99108.25;;;-145.95;100.00
37648;BME280;23490;53.656;10.076;2023-04-09T10:43:08;99157.81;;;-145.95;100.00
37648;BME280;23490;53.656;10.076;2023-04-09T10:45:39;99116.50;;;-145.95;100.00
37648;BME280;23490;53.656;10.076;2023-04-09T10:48:10;99137.16;;;-145.95;100.00
37648;BME280;23490;53.656;10.076;2023-04-09T10:50:41;99112.38;;;-145.95;99.65
37648;BME280;23490;53.656;10.076;2023-04-09T10:53:06;99116.50;;;-145.95;100.00
37648;BME280;23490;53.656;10.076;2023-04-09T10:55:38;99133.03;;;-145.95;99.98
37648;BME280;23490;53.656;10.076;2023-04-09T10:58:05;99141.28;;;-145.95;100.00
37648;BME280;23490;53.656;10.076;2023-04-09T11:00:36;99104.09;;;-145.95;100.00
37648;BME280;23490;53.656;10.076;2023-04-09T11:05:35;99133.03;;;-145.95;100.00
37648;BME280;23490;53.656;10.076;2023-04-09T11:08:07;99124.75;;;-145.95;98.82
37648;BME280;23490;53.656;10.076;2023-04-09T11:10:34;99141.28;;;-145.95;98.79
37648;BME280;23490;53.656;10.076;2023-04-09T11:13:02;99120.63;;;-145.95;99.13
37648;BME280;23490;53.656;10.076;2023-04-09T11:15:28;99108.25;;;-145.95;99.56
37648;BME280;23490;53.656;10.076;2023-04-09T11:17:53;99099.97;;;-145.95;98.70
37648;BME280;23490;53.656;10.076;2023-04-09T11:20:21;99048.34;;;-145.95;98.92
37648;BME280;23490;53.656;10.076;2023-04-09T11:22:53;99116.50;;;-145.95;98.17
37648;BME280;23490;53.656;10.076;2023-04-09T11:27:45;99079.34;;;-145.95;96.54
37648;BME280;23490;53.656;10.076;2023-04-09T11:30:12;99009.13;;;-145.95;96.66
37648;BME280;23490;53.656;10.076;2023-04-09T11:32:38;99046.28;;;-145.95;96.51
37648;BME280;23490;53.656;10.076;2023-04-09T11:35:04;99079.34;;;-145.95;98.11
37648;BME280;23490;53.656;10.076;2023-04-09T11:37:29;99079.34;;;-145.95;97.64
37648;BME280;23490;53.656;10.076;2023-04-09T11:39:55;99009.13;;;-145.95;99.52
37648;BME280;23490;53.656;10.076;2023-04-09T11:42:22;98996.72;;;-145.95;96.17
37648;BME280;23490;53.656;10.076;2023-04-09T11:44:51;99013.25;;;-145.95;97.04
37648;BME280;23490;53.656;10.076;2023-04-09T11:47:16;99046.28;;;-145.95;97.42
37648;BME280;23490;53.656;10.076;2023-04-09T11:49:43;99023.56;;;-145.95;98.06
37648;BME280;23490;53.656;10.076;2023-04-09T11:52:11;99005.00;;;-145.95;97.69
37648;BME280;23490;53.656;10.076;2023-04-09T11:54:39;98978.16;;;-145.95;96.58
37648;BME280;23490;53.656;10.076;2023-04-09T11:57:07;98959.56;;;-145.95;96.24
37648;BME280;23490;53.656;10.076;2023-04-09T11:59:32;98918.25;;;-145.95;94.46
37648;BME280;23490;53.656;10.076;2023-04-09T12:01:58;98823.28;;;-145.95;94.00
37648;BME280;23490;53.656;10.076;2023-04-09T12:04:24;98728.28;;;-145.95;89.11
37648;BME280;23490;53.656;10.076;2023-04-09T12:06:49;98728.28;;;-145.95;86.01
37648;BME280;23490;53.656;10.076;2023-04-09T12:09:15;98765.47;;;-145.95;86.94
37648;BME280;23490;53.656;10.076;2023-04-09T12:11:44;98691.13;;;-145.95;83.69
37648;BME280;23490;53.656;10.076;2023-04-09T12:14:17;98722.09;;;-145.95;81.31
37648;BME280;23490;53.656;10.076;2023-04-09T12:16:43;98329.81;;;-145.95;77.84
37648;BME280;23490;53.656;10.076;2023-04-09T12:19:13;98509.44;;;-145.95;73.22
37648;BME280;23490;53.656;10.076;2023-04-09T12:21:49;98177.03;;;-145.95;71.85
37648;BME280;23490;53.656;10.076;2023-04-09T12:24:17;98579.63;;;-145.95;73.71
37648;BME280;23490;53.656;10.076;2023-04-09T12:26:45;98602.34;;;-145.95;77.86
37648;BME280;23490;53.656;10.076;2023-04-09T12:29:12;98544.53;;;-145.95;79.94
37648;BME280;23490;53.656;10.076;2023-04-09T12:31:40;98637.44;;;-145.95;78.45
37648;BME280;23490;53.656;10.076;2023-04-09T12:34:06;98674.59;;;-145.95;81.72
37648;BME280;23490;53.656;10.076;2023-04-09T12:36:32;98100.66;;;-145.95;78.90